Claytonville, Illinois
Current Conditions -  °F | °C
As of 2:50 PM on Friday 19 Dec 2014 (Local Time) from KTIP Reporting Station
Broken Clouds Broken Clouds  
Wind Chill: 30°   Ceiling: 2100
Heat Index: 35°   Visibility: 10mi
Dew Point: 26°   Wind: 6mph
Humidity: 70%   Direction: 190°S
Pressure: 30.3"   Gusts: NA
Location:  40.57°N, 87.82°W
Report Text: KTIP 192050Z AUTO 19005KT 10SM BKN021 BKN026 02/M03 A3030 RMK AO2 T00151035
Loading
Personal Weather Stations






























Interactive Weather Map New forecast layout! Learn more

10-Day Weather Forecast

Advertisements
Track Severe Weather on mobile